Adair Village, Oregon
Current Conditions -  °F | °C
As of 4:35 PM on Friday 24 Oct 2014 (Local Time) from KCVO Reporting Station
Broken Clouds Broken Clouds  
Wind Chill: 12°   Ceiling: 3500
Heat Index: 12°   Visibility: 7mi
Dew Point: 11°   Wind: 3mph
Humidity: 94%   Direction: 320°NW
Pressure: 29.83"   Gusts: NA
Location:  44.6364°N, 123.28°W
Report Text: KCVO 242335Z AUTO 32003KT 7SM FEW005 SCT026 BKN035 12/11 A2983 RMK AO1
Loading
Personal Weather Stations






























Interactive Weather Map
Tropical Storm Tracking
New forecast layout! Learn more

10-Day Weather Forecast

Advertisements
Track Severe Weather on mobile